createdAt,value
2022-09-30T00:01:26.953Z,99584.47
2022-09-30T00:03:55.439Z,99593.03
2022-09-30T00:06:24.133Z,99595.41
2022-09-30T00:08:51.321Z,99601.50
2022-09-30T00:11:21.593Z,99598.56
2022-09-30T00:13:51.109Z,99587.66
2022-09-30T00:16:21.298Z,99583.59
2022-09-30T00:18:50.173Z,99593.13
2022-09-30T00:21:17.468Z,99585.00
2022-09-30T00:23:46.053Z,99593.38
2022-09-30T00:26:17.108Z,99597.66
2022-09-30T00:28:45.327Z,99592.84
2022-09-30T00:31:15.737Z,99594.72
2022-09-30T00:33:44.016Z,99602.66
2022-09-30T00:36:11.465Z,99606.53
2022-09-30T00:38:38.627Z,99605.09
2022-09-30T00:41:06.342Z,99603.91
2022-09-30T00:43:43.461Z,99601.78
2022-09-30T00:46:43.658Z,99602.22
2022-09-30T00:49:29.936Z,99610.13
2022-09-30T00:51:58.476Z,99618.25
2022-09-30T00:54:30.824Z,99623.03
2022-09-30T00:57:03.927Z,99617.69
2022-09-30T00:59:38.263Z,99616.78
2022-09-30T01:02:06.704Z,99618.53
2022-09-30T01:04:35.075Z,99614.56
2022-09-30T01:07:04.701Z,99620.13
2022-09-30T01:09:34.960Z,99611.66
2022-09-30T01:12:24.827Z,99631.19
2022-09-30T01:14:55.145Z,99636.84
2022-09-30T01:17:56.453Z,99634.44
2022-09-30T01:20:29.809Z,99650.16
2022-09-30T01:23:32.225Z,99649.81
2022-09-30T01:26:24.555Z,99651.66
2022-09-30T01:29:05.143Z,99657.69
2022-09-30T01:31:50.044Z,99652.03
2022-09-30T01:34:33.617Z,99654.59
2022-09-30T01:37:36.435Z,99657.97
2022-09-30T01:40:10.962Z,99657.16
2022-09-30T01:42:51.898Z,99660.81
2022-09-30T01:45:35.384Z,99651.13
2022-09-30T01:48:19.566Z,99652.63
2022-09-30T01:51:02.893Z,99650.09
2022-09-30T01:53:36.101Z,99653.63
2022-09-30T01:56:03.226Z,99648.84
2022-09-30T01:58:36.986Z,99646.94
2022-09-30T02:01:10.338Z,99646.41
2022-09-30T02:03:43.449Z,99644.13
2022-09-30T02:06:19.267Z,99648.75
2022-09-30T02:08:53.391Z,99645.75
2022-09-30T02:11:26.602Z,99649.97
2022-09-30T02:14:25.937Z,99659.63
2022-09-30T02:17:02.328Z,99656.34
2022-09-30T02:19:34.897Z,99658.84
2022-09-30T02:22:11.783Z,99656.59
2022-09-30T02:24:42.542Z,99654.38
2022-09-30T02:27:17.913Z,99657.75
2022-09-30T02:29:50.772Z,99653.50
2022-09-30T02:32:25.298Z,99659.75
2022-09-30T02:34:58.085Z,99652.66
2022-09-30T02:37:34.005Z,99665.88
2022-09-30T02:40:27.506Z,99660.28
2022-09-30T02:42:55.159Z,99659.88
2022-09-30T02:45:23.995Z,99658.50
2022-09-30T02:48:29.657Z,99656.56
2022-09-30T02:51:19.858Z,99674.41
2022-09-30T02:54:02.528Z,99669.28
2022-09-30T02:56:53.153Z,99671.16
2022-09-30T02:59:22.402Z,99679.69
2022-09-30T03:01:50.366Z,99671.50
2022-09-30T03:04:23.308Z,99684.66
2022-09-30T03:06:51.182Z,99678.06
2022-09-30T03:09:18.941Z,99678.44
2022-09-30T03:11:47.825Z,99684.81
2022-09-30T03:14:38.694Z,99686.53
2022-09-30T03:17:24.689Z,99676.59
2022-09-30T03:20:16.139Z,99686.66
2022-09-30T03:23:27.614Z,99688.19
2022-09-30T03:26:12.868Z,99696.00
2022-09-30T03:29:06.797Z,99696.50
2022-09-30T03:31:41.316Z,99700.19
2022-09-30T03:34:22.286Z,99705.25
2022-09-30T03:37:25.097Z,99711.63
2022-09-30T03:40:10.242Z,99715.13
2022-09-30T03:42:45.924Z,99714.16
2022-09-30T03:45:25.070Z,99710.88
2022-09-30T03:47:57.254Z,99702.94
2022-09-30T03:50:27.651Z,99695.84
2022-09-30T03:52:55.663Z,99708.47
2022-09-30T03:55:24.372Z,99702.47
2022-09-30T03:57:52.255Z,99711.00
2022-09-30T04:00:19.601Z,99710.81
2022-09-30T04:02:46.730Z,99723.19
2022-09-30T04:05:14.014Z,99711.16
2022-09-30T04:07:41.378Z,99721.84
2022-09-30T04:10:09.111Z,99719.09
2022-09-30T04:12:36.353Z,99732.63
2022-09-30T04:15:03.918Z,99738.78
2022-09-30T04:17:31.639Z,99737.50
2022-09-30T04:19:58.784Z,99736.31
2022-09-30T04:22:26.660Z,99734.72
2022-09-30T04:24:53.949Z,99739.47
2022-09-30T04:27:21.124Z,99750.28
2022-09-30T04:29:48.496Z,99756.13
2022-09-30T04:32:15.662Z,99760.56
2022-09-30T04:34:42.866Z,99758.88
2022-09-30T04:37:11.283Z,99760.63
2022-09-30T04:39:38.534Z,99768.25
2022-09-30T04:42:06.338Z,99767.72
2022-09-30T04:44:35.452Z,99764.72
2022-09-30T04:47:03.148Z,99769.44
2022-09-30T04:49:30.779Z,99771.84
2022-09-30T04:51:58.141Z,99775.34
2022-09-30T04:54:25.292Z,99777.47
2022-09-30T04:56:52.560Z,99773.91
2022-09-30T04:59:20.024Z,99784.41
2022-09-30T05:01:47.322Z,99783.25
2022-09-30T05:04:16.258Z,99792.47
2022-09-30T05:06:43.670Z,99779.19
2022-09-30T05:09:11.016Z,99784.78
2022-09-30T05:11:38.353Z,99793.50
2022-09-30T05:14:11.616Z,99791.09
2022-09-30T05:16:38.885Z,99787.63
2022-09-30T05:19:06.509Z,99789.13
2022-09-30T05:21:34.199Z,99785.34
2022-09-30T05:24:02.167Z,99785.59
2022-09-30T05:26:29.519Z,99779.22
2022-09-30T05:28:57.670Z,99781.94
2022-09-30T05:31:24.898Z,99789.44
2022-09-30T05:33:57.155Z,99784.31
2022-09-30T05:36:25.237Z,99777.41
2022-09-30T05:38:53.191Z,99796.28
2022-09-30T05:41:21.144Z,99791.97
2022-09-30T05:43:48.966Z,99780.31
2022-09-30T05:46:19.329Z,99794.88
2022-09-30T05:48:47.040Z,99798.25
2022-09-30T05:51:14.489Z,99808.44
2022-09-30T05:53:42.271Z,99803.81
2022-09-30T05:56:10.674Z,99812.13
2022-09-30T05:58:38.789Z,99809.88
2022-09-30T06:01:13.205Z,99818.19
2022-09-30T06:03:45.753Z,99837.47
2022-09-30T06:06:14.063Z,99823.81
2022-09-30T06:08:41.983Z,99842.81
2022-09-30T06:11:12.291Z,99846.16
2022-09-30T06:13:40.893Z,99849.53
2022-09-30T06:16:09.796Z,99855.63
2022-09-30T06:18:39.172Z,99851.88
2022-09-30T06:21:06.338Z,99857.72
2022-09-30T06:23:35.204Z,99850.03
2022-09-30T06:26:04.879Z,99845.81
2022-09-30T06:28:35.402Z,99860.16
2022-09-30T06:31:04.336Z,99851.81
2022-09-30T06:33:32.775Z,99872.22
2022-09-30T06:36:04.306Z,99877.13
2022-09-30T06:38:32.864Z,99868.72
2022-09-30T06:41:00.680Z,99887.94
2022-09-30T06:43:28.473Z,99889.91
2022-09-30T06:46:06.016Z,99885.31
2022-09-30T06:48:40.657Z,99887.19
2022-09-30T06:51:11.017Z,99898.59
2022-09-30T06:53:39.869Z,99901.66
2022-09-30T06:56:07.542Z,99901.84
2022-09-30T06:58:34.779Z,99910.09
2022-09-30T07:01:04.913Z,99899.88
2022-09-30T07:03:35.131Z,99902.00
2022-09-30T07:06:05.540Z,99902.09
2022-09-30T07:08:35.334Z,99903.44
2022-09-30T07:11:15.009Z,99904.84
2022-09-30T07:13:43.520Z,99900.69
2022-09-30T07:16:12.271Z,99903.25
2022-09-30T07:18:42.818Z,99897.22
2022-09-30T07:21:12.328Z,99895.53
2022-09-30T07:23:47.373Z,99890.22
2022-09-30T07:26:20.325Z,99907.81
2022-09-30T07:28:48.209Z,99900.91
2022-09-30T07:31:33.694Z,99905.28
2022-09-30T07:34:03.884Z,99912.44
2022-09-30T07:36:33.445Z,99926.78
2022-09-30T07:39:07.417Z,99920.59
2022-09-30T07:41:37.897Z,99917.78
2022-09-30T07:44:07.937Z,99916.28
2022-09-30T07:46:39.251Z,99911.59
2022-09-30T07:49:12.589Z,99934.44
2022-09-30T07:51:41.843Z,99938.09
2022-09-30T07:54:12.831Z,99954.84
2022-09-30T07:57:05.506Z,99949.53
2022-09-30T07:59:30.619Z,99956.31
2022-09-30T08:01:58.187Z,99955.72
2022-09-30T08:04:27.343Z,99958.72
2022-09-30T08:07:00.326Z,99970.53
2022-09-30T08:09:30.036Z,99961.00
2022-09-30T08:11:57.950Z,99956.72
2022-09-30T08:14:27.789Z,99963.41
2022-09-30T08:16:56.886Z,99969.25
2022-09-30T08:19:25.586Z,99971.13
2022-09-30T08:21:55.649Z,99964.84
2022-09-30T08:24:24.139Z,99968.69
2022-09-30T08:26:52.826Z,99970.38
2022-09-30T08:29:35.835Z,99984.75
2022-09-30T08:32:08.030Z,99987.22
2022-09-30T08:34:35.900Z,99968.63
2022-09-30T08:37:09.050Z,99980.03
2022-09-30T08:39:40.103Z,99985.84
2022-09-30T08:42:51.779Z,99992.09
2022-09-30T08:45:36.036Z,99982.22
2022-09-30T08:48:08.936Z,99997.28
2022-09-30T08:50:48.557Z,99992.78
2022-09-30T08:53:24.346Z,100001.03
2022-09-30T08:55:54.839Z,100007.09
2022-09-30T08:58:37.045Z,100011.28
2022-09-30T09:01:15.266Z,99987.66
2022-09-30T09:03:43.179Z,99997.78
2022-09-30T09:06:29.975Z,99992.88
2022-09-30T09:09:08.997Z,99993.81
2022-09-30T09:11:43.601Z,99993.88
2022-09-30T09:14:38.740Z,99994.25
2022-09-30T09:17:24.915Z,100001.09
2022-09-30T09:20:02.503Z,100004.94
2022-09-30T09:22:31.856Z,99999.94
2022-09-30T09:25:01.084Z,99999.22
2022-09-30T09:27:45.545Z,99998.34
2022-09-30T09:30:20.149Z,99985.59
2022-09-30T09:32:55.319Z,99999.19
2022-09-30T09:35:51.592Z,99992.56
2022-09-30T09:38:31.864Z,100000.78
2022-09-30T09:41:05.243Z,99999.00
2022-09-30T09:44:01.659Z,99998.97
2022-09-30T09:46:46.369Z,99995.91
2022-09-30T09:49:28.801Z,99994.25
2022-09-30T09:52:03.343Z,99996.53
2022-09-30T09:54:33.227Z,99990.69
2022-09-30T09:57:16.092Z,99987.81
2022-09-30T09:59:58.165Z,99996.09
2022-09-30T10:02:31.742Z,99989.66
2022-09-30T10:05:03.970Z,99975.72
2022-09-30T10:07:33.602Z,99979.91
2022-09-30T10:10:22.563Z,99974.84
2022-09-30T10:12:51.422Z,99973.34
2022-09-30T10:15:23.997Z,99968.88
2022-09-30T10:17:54.567Z,99974.22
2022-09-30T10:20:37.174Z,99983.69
2022-09-30T10:23:20.187Z,99974.97
2022-09-30T10:25:58.140Z,99966.25
2022-09-30T10:28:29.969Z,99962.56
2022-09-30T10:31:03.820Z,99968.28
2022-09-30T10:33:36.767Z,99970.84
2022-09-30T10:36:32.356Z,99961.94
2022-09-30T10:39:24.752Z,99965.28
2022-09-30T10:42:09.453Z,99970.59
2022-09-30T10:45:18.808Z,99965.19
2022-09-30T10:47:52.721Z,99972.63
2022-09-30T10:50:27.746Z,99963.38
2022-09-30T10:53:21.792Z,99970.81
2022-09-30T10:55:49.197Z,99965.16
2022-09-30T10:58:41.763Z,99960.97
2022-09-30T11:01:29.082Z,99965.66
2022-09-30T11:04:07.516Z,99958.19
2022-09-30T11:06:39.046Z,99971.00
2022-09-30T11:09:35.790Z,99960.25
2022-09-30T11:12:13.731Z,99956.97
2022-09-30T11:14:58.622Z,99958.72
2022-09-30T11:17:54.693Z,99957.03
2022-09-30T11:20:29.923Z,99961.88
2022-09-30T11:23:04.274Z,99960.72
2022-09-30T11:25:39.789Z,99965.47
2022-09-30T11:28:47.887Z,99967.38
2022-09-30T11:31:31.337Z,99970.28
2022-09-30T11:34:23.186Z,99969.53
2022-09-30T11:37:05.730Z,99973.50
2022-09-30T11:40:09.685Z,99960.69
2022-09-30T11:42:46.227Z,99978.13
2022-09-30T11:45:29.527Z,99968.38
2022-09-30T11:48:13.111Z,99964.75
2022-09-30T11:50:58.165Z,99968.28
2022-09-30T11:53:41.685Z,99968.34
2022-09-30T11:56:30.049Z,99976.41
2022-09-30T11:59:01.017Z,99972.75
2022-09-30T12:01:34.143Z,99973.41
2022-09-30T12:04:12.723Z,99967.16
2022-09-30T12:06:49.871Z,99966.63
2022-09-30T12:09:32.678Z,99979.28
2022-09-30T12:12:08.579Z,99964.06
2022-09-30T12:14:51.731Z,99967.97
2022-09-30T12:17:42.003Z,99965.09
2022-09-30T12:20:18.551Z,99959.66
2022-09-30T12:22:47.983Z,99961.78
2022-09-30T12:25:22.356Z,99961.34
2022-09-30T12:28:23.848Z,99957.31
2022-09-30T12:31:00.194Z,99956.75
2022-09-30T12:33:41.396Z,99948.03
2022-09-30T12:36:28.444Z,99949.72
2022-09-30T12:39:08.001Z,99956.56
2022-09-30T12:42:07.799Z,99956.34
2022-09-30T12:45:15.590Z,99958.91
2022-09-30T12:47:50.685Z,99959.94
2022-09-30T12:50:21.603Z,99964.25
2022-09-30T12:52:49.613Z,99960.41
2022-09-30T12:55:31.334Z,99966.72
2022-09-30T12:58:03.159Z,99961.31
2022-09-30T13:00:36.178Z,99966.91
2022-09-30T13:03:17.769Z,99962.25
2022-09-30T13:05:52.181Z,99962.44
2022-09-30T13:08:24.250Z,99971.47
2022-09-30T13:11:04.628Z,99958.44
2022-09-30T13:13:34.877Z,99953.72
2022-09-30T13:16:06.794Z,99964.75
2022-09-30T13:18:34.265Z,99960.09
2022-09-30T13:21:10.833Z,99953.44
2022-09-30T13:23:42.292Z,99958.16
2022-09-30T13:26:27.852Z,99956.81
2022-09-30T13:29:16.239Z,99955.97
2022-09-30T13:31:49.457Z,99963.00
2022-09-30T13:34:27.993Z,99950.81
2022-09-30T13:37:05.983Z,99948.44
2022-09-30T13:39:49.212Z,99952.97
2022-09-30T13:42:16.567Z,99952.69
2022-09-30T13:45:17.103Z,99953.03
2022-09-30T13:48:00.528Z,99948.03
2022-09-30T13:50:39.060Z,99946.66
2022-09-30T13:53:13.395Z,99946.75
2022-09-30T13:55:50.046Z,99946.69
2022-09-30T13:58:37.828Z,99942.50
2022-09-30T14:01:28.317Z,99954.59
2022-09-30T14:04:23.429Z,99959.34
2022-09-30T14:07:03.177Z,99951.91
2022-09-30T14:09:39.635Z,99952.06
2022-09-30T14:12:31.620Z,99954.16
2022-09-30T14:15:18.244Z,99943.84
2022-09-30T14:18:08.764Z,99956.69
2022-09-30T14:20:48.009Z,99962.63
2022-09-30T14:23:17.306Z,99959.91
2022-09-30T14:26:15.233Z,99961.94
2022-09-30T14:28:51.901Z,99961.97
2022-09-30T14:31:19.445Z,99960.91
2022-09-30T14:33:50.088Z,99952.66
2022-09-30T14:36:21.932Z,99962.25
2022-09-30T14:38:57.566Z,99957.53
2022-09-30T14:41:28.289Z,99958.06
2022-09-30T14:44:07.954Z,99968.00
2022-09-30T14:46:38.984Z,99963.97
2022-09-30T14:49:13.115Z,99974.22
2022-09-30T14:51:44.764Z,99964.28
2022-09-30T14:54:23.769Z,99968.69
2022-09-30T14:56:54.842Z,99980.47
2022-09-30T14:59:27.245Z,99972.25
2022-09-30T15:02:00.702Z,99974.44
2022-09-30T15:04:32.980Z,99982.34
2022-09-30T15:07:03.596Z,99972.91
2022-09-30T15:09:36.250Z,99971.88
2022-09-30T15:12:11.433Z,99975.94
2022-09-30T15:14:49.923Z,99976.28
2022-09-30T15:17:23.801Z,99990.09
2022-09-30T15:19:51.377Z,99993.66
2022-09-30T15:22:20.638Z,99995.53
2022-09-30T15:24:49.926Z,99993.97
2022-09-30T15:27:22.131Z,99979.31
2022-09-30T15:30:01.516Z,99985.72
2022-09-30T15:32:35.692Z,99986.19
2022-09-30T15:35:20.753Z,99985.03
2022-09-30T15:37:48.760Z,99991.78
2022-09-30T15:40:36.490Z,99994.94
2022-09-30T15:43:07.306Z,99986.53
2022-09-30T15:45:36.360Z,99995.47
2022-09-30T15:48:16.896Z,99997.69
2022-09-30T15:50:45.695Z,100001.84
2022-09-30T15:53:25.343Z,99985.78
2022-09-30T15:55:58.519Z,100008.72
2022-09-30T15:58:39.917Z,100012.41
2022-09-30T16:01:15.956Z,100001.72
2022-09-30T16:03:50.794Z,100003.44
2022-09-30T16:06:28.704Z,100011.41
2022-09-30T16:09:06.726Z,100004.63
2022-09-30T16:11:37.819Z,100007.38
2022-09-30T16:14:07.867Z,99997.97
2022-09-30T16:16:38.131Z,100005.81
2022-09-30T16:19:06.422Z,100006.03
2022-09-30T16:21:44.034Z,100019.09
2022-09-30T16:24:23.267Z,100016.44
2022-09-30T16:27:15.775Z,100016.34
2022-09-30T16:29:46.035Z,100016.97
2022-09-30T16:32:14.305Z,100017.38
2022-09-30T16:34:41.554Z,100031.22
2022-09-30T16:37:14.523Z,100035.19
2022-09-30T16:39:41.702Z,100038.16
2022-09-30T16:42:13.989Z,100033.47
2022-09-30T16:44:44.533Z,100039.41
2022-09-30T16:47:17.674Z,100022.16
2022-09-30T16:49:48.256Z,100017.34
2022-09-30T16:52:15.724Z,100034.56
2022-09-30T16:54:43.060Z,100031.16
2022-09-30T16:57:13.367Z,100034.44
2022-09-30T16:59:40.767Z,100024.47
2022-09-30T17:02:13.697Z,100038.75
2022-09-30T17:04:41.304Z,100046.31
2022-09-30T17:07:12.063Z,100046.84
2022-09-30T17:09:39.648Z,100042.13
2022-09-30T17:12:07.027Z,100052.06
2022-09-30T17:14:35.125Z,100042.91
2022-09-30T17:17:02.293Z,100040.50
2022-09-30T17:19:32.879Z,100040.66
2022-09-30T17:22:00.257Z,100043.63
2022-09-30T17:24:27.684Z,100032.56
2022-09-30T17:26:55.189Z,100036.78
2022-09-30T17:29:31.849Z,100030.03
2022-09-30T17:32:00.128Z,100043.34
2022-09-30T17:34:28.166Z,100044.94
2022-09-30T17:36:56.614Z,100051.78
2022-09-30T17:39:26.963Z,100048.72
2022-09-30T17:42:12.556Z,100044.16
2022-09-30T17:44:40.145Z,100044.56
2022-09-30T17:47:07.329Z,100046.63
2022-09-30T17:49:36.034Z,100052.25
2022-09-30T17:52:04.198Z,100049.31
2022-09-30T17:54:33.147Z,100048.41
2022-09-30T17:57:00.325Z,100056.16
2022-09-30T17:59:28.717Z,100049.72
2022-09-30T18:01:56.578Z,100051.16
2022-09-30T18:04:27.183Z,100051.16
2022-09-30T18:06:54.728Z,100044.72
2022-09-30T18:09:23.163Z,100048.56
2022-09-30T18:11:50.484Z,100042.41
2022-09-30T18:14:17.953Z,100043.22
2022-09-30T18:16:45.333Z,100057.03
2022-09-30T18:21:41.546Z,100038.75
2022-09-30T18:24:10.345Z,100041.53
2022-09-30T18:26:37.587Z,100040.31
2022-09-30T18:29:05.396Z,100032.16
2022-09-30T18:31:37.230Z,100037.13
2022-09-30T18:34:06.529Z,100040.06
2022-09-30T18:36:34.244Z,100037.44
2022-09-30T18:39:02.264Z,100048.03
2022-09-30T18:41:31.999Z,100044.22
2022-09-30T18:44:02.974Z,100033.88
2022-09-30T18:46:31.732Z,100040.38
2022-09-30T18:48:59.130Z,100041.56
2022-09-30T18:51:26.367Z,100037.88
2022-09-30T18:53:59.144Z,100029.66
2022-09-30T18:56:31.981Z,100032.34
2022-09-30T18:59:01.532Z,100032.09
2022-09-30T19:01:28.945Z,100027.53
2022-09-30T19:03:56.463Z,100032.44
2022-09-30T19:06:24.082Z,100022.56
2022-09-30T19:08:51.402Z,100025.31
2022-09-30T19:11:18.928Z,100027.50
2022-09-30T19:13:48.085Z,100023.72
2022-09-30T19:16:18.874Z,100022.50
2022-09-30T19:18:46.440Z,100023.28
2022-09-30T19:21:20.393Z,100020.41
2022-09-30T19:23:48.248Z,100019.97
2022-09-30T19:26:15.884Z,100018.19
2022-09-30T19:28:43.084Z,100025.56
2022-09-30T19:31:17.163Z,100026.34
2022-09-30T19:33:55.923Z,100023.56
2022-09-30T19:36:26.766Z,100029.94
2022-09-30T19:39:09.438Z,100023.88
2022-09-30T19:41:38.215Z,100014.72
2022-09-30T19:44:05.706Z,100011.44
2022-09-30T19:46:33.268Z,100014.72
2022-09-30T19:49:00.573Z,100015.03
2022-09-30T19:51:31.084Z,100009.13
2022-09-30T19:54:06.338Z,100014.13
2022-09-30T19:56:36.391Z,100018.66
2022-09-30T19:59:04.501Z,100012.19
2022-09-30T20:01:34.896Z,100012.69
2022-09-30T20:04:05.360Z,100016.34
2022-09-30T20:06:34.366Z,100013.28
2022-09-30T20:09:04.392Z,100009.22
2022-09-30T20:11:34.140Z,100016.84
2022-09-30T20:14:23.135Z,100007.97
2022-09-30T20:16:50.991Z,100006.22
2022-09-30T20:19:19.323Z,99993.59
2022-09-30T20:21:47.263Z,100006.06
2022-09-30T20:24:16.564Z,100010.16
2022-09-30T20:26:44.995Z,100014.34
2022-09-30T20:29:12.549Z,100014.56
2022-09-30T20:31:42.874Z,100004.88
2022-09-30T20:34:13.407Z,100011.88
2022-09-30T20:36:41.216Z,100002.34
2022-09-30T20:39:10.195Z,99996.91
2022-09-30T20:41:39.006Z,100005.19
2022-09-30T20:44:12.093Z,100014.25
2022-09-30T20:46:41.627Z,100009.81
2022-09-30T20:49:09.666Z,100015.56
2022-09-30T20:51:36.866Z,100010.53
2022-09-30T20:54:04.362Z,100003.53
2022-09-30T20:56:44.483Z,100008.22
2022-09-30T20:59:19.911Z,100010.28
2022-09-30T21:01:47.330Z,100006.06
2022-09-30T21:04:14.635Z,100012.81
2022-09-30T21:06:41.966Z,100004.38
2022-09-30T21:09:12.609Z,99999.53
2022-09-30T21:11:42.534Z,100005.16
2022-09-30T21:14:10.176Z,99989.59
2022-09-30T21:16:37.392Z,99992.56
2022-09-30T21:19:04.786Z,100007.63
2022-09-30T21:21:32.690Z,100005.25
2022-09-30T21:24:00.258Z,100004.50
2022-09-30T21:26:28.027Z,99995.91
2022-09-30T21:28:55.563Z,99999.50
2022-09-30T21:31:27.548Z,100006.25
2022-09-30T21:33:58.460Z,100004.81
2022-09-30T21:36:27.448Z,99997.38
2022-09-30T21:38:55.133Z,100005.91
2022-09-30T21:41:22.867Z,100003.97
2022-09-30T21:43:50.314Z,100006.47
2022-09-30T21:46:18.698Z,100001.28
2022-09-30T21:48:46.298Z,100003.69
2022-09-30T21:51:13.990Z,99996.06
2022-09-30T21:53:42.016Z,99999.50
2022-09-30T21:56:12.334Z,99994.28
2022-09-30T21:58:39.963Z,99993.72
2022-09-30T22:01:07.712Z,99987.94
2022-09-30T22:03:37.689Z,99996.00
2022-09-30T22:06:10.399Z,99998.94
2022-09-30T22:08:42.530Z,99997.41
2022-09-30T22:11:13.023Z,100006.06
2022-09-30T22:13:43.327Z,99999.97
2022-09-30T22:16:11.386Z,100002.97
2022-09-30T22:18:38.810Z,100003.97
2022-09-30T22:21:11.937Z,99998.16
2022-09-30T22:23:39.748Z,99999.75
2022-09-30T22:26:10.676Z,100002.56
2022-09-30T22:28:39.353Z,99989.19
2022-09-30T22:31:14.672Z,99992.41
2022-09-30T22:34:00.772Z,99994.94
2022-09-30T22:36:47.018Z,99994.38
2022-09-30T22:39:14.186Z,99988.88
2022-09-30T22:41:42.749Z,100001.88
2022-09-30T22:44:10.222Z,99997.78
2022-09-30T22:46:38.168Z,99988.31
2022-09-30T22:49:07.130Z,99996.78
2022-09-30T22:51:34.594Z,99993.38
2022-09-30T22:54:03.519Z,99980.81
2022-09-30T22:56:31.237Z,99986.16
2022-09-30T22:58:59.591Z,99988.69
2022-09-30T23:01:32.078Z,99980.66
2022-09-30T23:03:59.765Z,99977.59
2022-09-30T23:06:27.192Z,99974.19
2022-09-30T23:08:55.686Z,99968.00
2022-09-30T23:11:23.393Z,99973.09
2022-09-30T23:13:52.553Z,99967.13
2022-09-30T23:16:22.201Z,99969.09
2022-09-30T23:18:49.687Z,99971.53
2022-09-30T23:21:18.784Z,99970.66
2022-09-30T23:23:48.399Z,99958.81
2022-09-30T23:26:18.685Z,99969.41
2022-09-30T23:28:46.940Z,99969.97
2022-09-30T23:31:16.218Z,99962.63
2022-09-30T23:33:52.191Z,99963.59
2022-09-30T23:36:27.591Z,99954.13
2022-09-30T23:39:00.311Z,99958.34
2022-09-30T23:41:27.558Z,99950.72
2022-09-30T23:43:55.334Z,99953.50
2022-09-30T23:46:22.799Z,99951.63
2022-09-30T23:48:50.051Z,99947.25
2022-09-30T23:51:19.299Z,99953.44
2022-09-30T23:53:47.216Z,99960.63
2022-09-30T23:56:17.156Z,99955.97
2022-09-30T23:58:45.323Z,99961.00
